Time;durP1;ratioP1;P1;durP2;ratioP2;P2;SDS_P1;SDS_P2;PMS_P1;PMS_P2;Temp;Humidity;BMP_temperature;BMP_pressure;BME280_temperature;BME280_humidity;BME280_pressure;Samples;Min_cycle;Max_cycle;Signal;HPM_P1;HPM_P2
2023/06/23 00:01:45;;;;;;;4.13;3.78;;;22.00;56.50;;;;;;5048740;28;20032;-84
2023/06/23 00:04:11;;;;;;;4.82;4.30;;;22.00;56.50;;;;;;5018003;28;20032;-85
2023/06/23 00:06:40;;;;;;;4.68;4.25;;;21.90;56.40;;;;;;5046667;28;20028;-84
2023/06/23 00:09:13;;;;;;;4.93;4.47;;;21.90;56.50;;;;;;5023864;28;20111;-83
2023/06/23 00:11:41;;;;;;;6.43;4.82;;;21.90;56.60;;;;;;5043404;28;20646;-85
2023/06/23 00:14:08;;;;;;;4.60;4.25;;;21.80;56.50;;;;;;5045875;28;20146;-84
2023/06/23 00:16:36;;;;;;;5.65;5.10;;;21.80;56.60;;;;;;5053261;28;20036;-85
2023/06/23 00:19:03;;;;;;;5.15;4.22;;;21.80;56.70;;;;;;5036066;28;20387;-84
2023/06/23 00:21:29;;;;;;;5.15;4.60;;;21.70;56.60;;;;;;5017998;28;20029;-84
2023/06/23 00:23:55;;;;;;;4.97;4.47;;;21.70;56.70;;;;;;5045328;28;20036;-84
2023/06/23 00:26:23;;;;;;;4.82;4.43;;;21.70;56.80;;;;;;5057433;28;20048;-83
2023/06/23 00:28:50;;;;;;;4.93;4.45;;;21.60;56.70;;;;;;5075537;28;20170;-85
2023/06/23 00:31:17;;;;;;;5.05;4.45;;;21.60;56.80;;;;;;5060484;28;20087;-85
2023/06/23 00:33:46;;;;;;;5.20;4.63;;;21.50;56.80;;;;;;5045655;28;20060;-85
2023/06/23 00:36:12;;;;;;;4.63;4.25;;;21.50;56.80;;;;;;5067069;28;20048;-85
2023/06/23 00:38:38;;;;;;;4.20;3.90;;;21.50;57.00;;;;;;5015578;28;20036;-85
2023/06/23 00:41:04;;;;;;;4.82;4.43;;;21.40;56.80;;;;;;5041765;28;20079;-85
2023/06/23 00:43:34;;;;;;;4.90;4.05;;;21.40;57.00;;;;;;5037535;28;20102;-85
2023/06/23 00:46:21;;;;;;;4.90;4.25;;;21.30;56.80;;;;;;5055104;28;20539;-86
2023/06/23 00:48:48;;;;;;;3.90;3.60;;;21.30;57.10;;;;;;5041573;28;20032;-86
2023/06/23 00:51:16;;;;;;;5.85;4.40;;;21.30;57.10;;;;;;5025835;28;20777;-87
2023/06/23 00:53:49;;;;;;;4.00;3.70;;;21.20;56.90;;;;;;5020992;28;20116;-86
2023/06/23 00:56:24;;;;;;;4.90;4.40;;;21.20;57.10;;;;;;5030590;28;20029;-85
2023/06/23 00:58:52;;;;;;;5.60;5.10;;;21.10;57.00;;;;;;5060030;28;20089;-85
2023/06/23 01:01:22;;;;;;;4.53;4.13;;;21.10;57.10;;;;;;5049967;28;20488;-85
2023/06/23 01:03:48;;;;;;;4.85;4.45;;;21.00;57.00;;;;;;5051852;28;20029;-84
2023/06/23 01:06:46;;;;;;;4.63;4.30;;;21.00;57.10;;;;;;5039791;28;20043;-86
2023/06/23 01:09:49;;;;;;;4.40;4.00;;;21.00;57.40;;;;;;5037766;28;20135;-86
2023/06/23 01:12:37;;;;;;;4.57;4.18;;;20.90;57.20;;;;;;5059385;28;20484;-86
2023/06/23 01:15:11;;;;;;;3.75;3.42;;;20.80;57.70;;;;;;5057196;28;20152;-87
2023/06/23 01:17:46;;;;;;;4.57;4.18;;;20.80;57.10;;;;;;5055604;28;20033;-86
2023/06/23 01:20:24;;;;;;;4.82;4.43;;;20.80;57.30;;;;;;5040836;28;20451;-86
2023/06/23 01:23:05;;;;;;;3.97;3.67;;;20.70;57.20;;;;;;5033596;28;20075;-85
2023/06/23 01:25:44;;;;;;;5.28;4.22;;;20.70;57.30;;;;;;5037643;28;20615;-88
2023/06/23 01:28:41;;;;;;;5.68;4.55;;;20.60;57.10;;;;;;5055467;28;20048;-86
2023/06/23 01:31:14;;;;;;;4.63;4.22;;;20.60;57.30;;;;;;5053572;28;20028;-86
2023/06/23 01:33:48;;;;;;;3.92;3.58;;;20.60;57.30;;;;;;5028458;28;20319;-85
2023/06/23 01:36:32;;;;;;;5.05;4.47;;;20.50;57.30;;;;;;5030437;28;20107;-85
2023/06/23 01:39:03;;;;;;;4.72;4.25;;;20.50;57.40;;;;;;5038579;28;20396;-85
2023/06/23 01:41:49;;;;;;;3.95;3.55;;;20.50;57.40;;;;;;5028453;28;20036;-84
2023/06/23 01:44:17;;;;;;;4.82;4.43;;;20.50;57.50;;;;;;5045703;28;20064;-85
2023/06/23 01:46:47;;;;;;;4.65;4.25;;;20.40;57.40;;;;;;5055029;28;20053;-85
2023/06/23 01:49:20;;;;;;;4.10;3.80;;;20.40;57.50;;;;;;5057609;28;20036;-84
2023/06/23 01:51:51;;;;;;;4.25;3.78;;;20.40;57.60;;;;;;5064820;28;20412;-84
2023/06/23 01:54:19;;;;;;;4.38;3.97;;;20.30;57.50;;;;;;5061892;28;20044;-84
2023/06/23 01:56:47;;;;;;;5.15;4.65;;;20.30;57.50;;;;;;5044553;28;20392;-84
2023/06/23 01:59:15;;;;;;;5.25;4.70;;;20.30;57.70;;;;;;5033431;28;20175;-83
2023/06/23 02:01:46;;;;;;;4.10;3.70;;;20.20;57.60;;;;;;5042685;28;20120;-84
2023/06/23 02:04:14;;;;;;;4.95;4.50;;;20.20;57.70;;;;;;5063788;28;20037;-84
2023/06/23 02:06:45;;;;;;;5.15;4.68;;;20.20;57.80;;;;;;5041889;28;20056;-84
2023/06/23 02:09:17;;;;;;;4.20;3.80;;;20.10;57.70;;;;;;5041801;28;20499;-85
2023/06/23 02:11:48;;;;;;;4.47;4.07;;;20.10;57.80;;;;;;5045235;28;20033;-84
2023/06/23 02:14:19;;;;;;;5.28;4.78;;;20.10;57.90;;;;;;5031545;28;20051;-83
2023/06/23 02:16:48;;;;;;;4.18;3.78;;;20.00;57.90;;;;;;5054338;28;20192;-84
2023/06/23 02:19:18;;;;;;;5.32;4.75;;;20.00;58.00;;;;;;5024183;28;20039;-83
2023/06/23 02:21:45;;;;;;;5.03;4.53;;;19.90;57.90;;;;;;5044870;28;20028;-82
2023/06/23 02:24:15;;;;;;;5.10;4.65;;;19.90;58.00;;;;;;5035417;28;20399;-83
2023/06/23 02:26:44;;;;;;;4.93;4.38;;;19.90;58.10;;;;;;5065858;28;20116;-84
2023/06/23 02:29:15;;;;;;;5.33;4.83;;;19.80;58.00;;;;;;5037046;28;20139;-83
2023/06/23 02:31:42;;;;;;;4.85;4.45;;;19.80;58.20;;;;;;5024071;28;20080;-83
2023/06/23 02:34:08;;;;;;;4.63;4.18;;;19.80;58.20;;;;;;5045559;28;20132;-83
2023/06/23 02:37:04;;;;;;;4.03;3.67;;;19.80;58.30;;;;;;5021996;28;20042;-84
2023/06/23 02:39:36;;;;;;;4.97;4.50;;;19.70;58.40;;;;;;5042901;28;20049;-83
2023/06/23 02:42:04;;;;;;;5.03;4.57;;;19.70;58.40;;;;;;5034947;28;20555;-84
2023/06/23 02:44:38;;;;;;;4.40;4.00;;;19.70;58.40;;;;;;5039024;28;20498;-83
2023/06/23 02:47:14;;;;;;;5.43;4.85;;;19.60;58.30;;;;;;5028909;28;20783;-82
2023/06/23 02:49:43;;;;;;;4.90;4.40;;;19.70;58.60;;;;;;5043973;28;20036;-82
2023/06/23 02:52:14;;;;;;;5.63;5.13;;;19.60;58.40;;;;;;5048207;28;20518;-83
2023/06/23 02:54:45;;;;;;;4.78;4.38;;;19.60;58.50;;;;;;5065383;28;20132;-81
2023/06/23 02:57:15;;;;;;;5.63;4.40;;;19.50;58.50;;;;;;5046760;28;20480;-81
2023/06/23 02:59:44;;;;;;;4.57;4.18;;;19.50;58.60;;;;;;5018275;28;20064;-79
2023/06/23 03:02:13;;;;;;;5.47;5.05;;;19.50;58.70;;;;;;5027838;28;20496;-80
2023/06/23 03:04:41;;;;;;;4.20;3.90;;;19.50;58.80;;;;;;5045663;28;20040;-80
2023/06/23 03:07:10;;;;;;;5.05;4.63;;;19.50;58.80;;;;;;5034781;28;20139;-80
2023/06/23 03:09:37;;;;;;;5.03;4.53;;;19.50;58.80;;;;;;5030450;28;20111;-78
2023/06/23 03:12:05;;;;;;;4.95;4.55;;;19.50;58.90;;;;;;5046515;28;20109;-81
2023/06/23 03:14:35;;;;;;;5.53;5.03;;;19.50;58.90;;;;;;5034594;28;20119;-81
2023/06/23 03:17:08;;;;;;;5.35;4.85;;;19.40;58.80;;;;;;5060412;28;20055;-80
2023/06/23 03:19:38;;;;;;;5.38;4.63;;;19.40;58.90;;;;;;5045831;28;20120;-80
2023/06/23 03:22:08;;;;;;;5.43;4.93;;;19.40;58.90;;;;;;5031237;28;20040;-80
2023/06/23 03:24:40;;;;;;;5.68;5.18;;;19.40;59.00;;;;;;5013384;28;20068;-81
2023/06/23 03:27:10;;;;;;;5.35;4.88;;;19.40;59.00;;;;;;5039251;28;20431;-81
2023/06/23 03:29:44;;;;;;;5.75;5.05;;;19.30;58.90;;;;;;5044582;28;20029;-80
2023/06/23 03:32:14;;;;;;;5.95;5.45;;;19.30;58.90;;;;;;5058199;28;20485;-80
2023/06/23 03:34:48;;;;;;;5.25;4.75;;;19.30;59.00;;;;;;5037371;28;20416;-81
2023/06/23 03:37:16;;;;;;;4.32;3.92;;;19.30;59.00;;;;;;5038456;28;20457;-80
2023/06/23 03:39:45;;;;;;;5.97;5.18;;;19.30;59.10;;;;;;5064615;28;20561;-80
2023/06/23 03:42:11;;;;;;;5.30;4.90;;;19.20;58.90;;;;;;5028967;28;20040;-80
2023/06/23 03:44:45;;;;;;;5.68;5.18;;;19.20;59.00;;;;;;5034848;28;20123;-80
2023/06/23 03:47:15;;;;;;;5.43;4.93;;;19.20;59.10;;;;;;5040679;28;20076;-78
2023/06/23 03:49:46;;;;;;;5.80;5.20;;;19.20;59.10;;;;;;5063353;28;20103;-81
2023/06/23 03:52:15;;;;;;;5.60;4.97;;;19.10;59.00;;;;;;5066393;28;20032;-81
2023/06/23 03:54:44;;;;;;;6.78;5.55;;;19.20;59.20;;;;;;5074901;28;20059;-81
2023/06/23 03:57:17;;;;;;;4.97;4.57;;;19.10;59.10;;;;;;5062657;28;20055;-81
2023/06/23 04:00:05;;;;;;;4.50;4.07;;;19.10;59.20;;;;;;4983149;28;20120;-81
2023/06/23 04:02:44;;;;;;;5.90;5.40;;;19.10;59.10;;;;;;5056729;28;20045;-81
2023/06/23 04:05:13;;;;;;;5.82;5.22;;;19.10;59.20;;;;;;5020700;28;20045;-82
2023/06/23 04:07:47;;;;;;;6.85;5.57;;;19.10;59.20;;;;;;5047607;28;20049;-82
2023/06/23 04:10:18;;;;;;;5.55;5.05;;;19.10;59.30;;;;;;5044377;28;20041;-81
2023/06/23 04:12:47;;;;;;;5.60;5.10;;;19.00;59.20;;;;;;5047694;28;20112;-81
2023/06/23 04:15:15;;;;;;;5.22;4.70;;;19.00;59.20;;;;;;5026963;28;20075;-80
2023/06/23 04:17:44;;;;;;;5.90;5.40;;;19.00;59.20;;;;;;5052416;28;20067;-81
2023/06/23 04:20:13;;;;;;;5.75;5.10;;;19.00;59.30;;;;;;5049461;28;20116;-81
2023/06/23 04:22:44;;;;;;;5.03;4.60;;;19.00;59.30;;;;;;5054698;28;20029;-80
2023/06/23 04:25:12;;;;;;;5.25;4.75;;;19.00;59.40;;;;;;5036039;28;20687;-80
2023/06/23 04:27:41;;;;;;;5.93;5.43;;;19.00;59.40;;;;;;5036231;28;20047;-81
2023/06/23 04:30:11;;;;;;;5.55;5.05;;;19.00;59.40;;;;;;5060354;28;20086;-81
2023/06/23 04:32:45;;;;;;;5.70;5.20;;;19.00;59.40;;;;;;5065016;28;20490;-82
2023/06/23 04:35:17;;;;;;;;;;;19.00;59.40;;;;;;5067875;28;20554;-83
2023/06/23 04:37:56;;;;;;;5.43;4.63;;;19.00;59.20;;;;;;5068106;28;20450;-81
2023/06/23 04:40:35;;;;;;;4.68;4.28;;;19.00;59.10;;;;;;5061862;28;20048;-82
2023/06/23 04:43:14;;;;;;;4.88;4.35;;;19.00;59.20;;;;;;5054562;28;20210;-83
2023/06/23 04:45:53;;;;;;;5.13;4.60;;;19.00;59.30;;;;;;5068874;28;20089;-82
2023/06/23 04:48:44;;;;;;;5.85;5.32;;;19.00;59.40;;;;;;4964298;28;20054;-82
2023/06/23 04:51:16;;;;;;;4.75;4.35;;;19.10;59.50;;;;;;5020244;28;20463;-83
2023/06/23 04:53:56;;;;;;;5.20;4.65;;;19.10;59.50;;;;;;5014834;28;20057;-82
2023/06/23 04:56:28;;;;;;;5.70;4.88;;;19.10;59.60;;;;;;5019835;28;20037;-82
2023/06/23 04:59:02;;;;;;;4.43;4.10;;;19.10;59.60;;;;;;5023748;28;20033;-82
2023/06/23 05:01:31;;;;;;;6.82;5.07;;;19.20;59.80;;;;;;5017821;28;20075;-82
2023/06/23 05:04:00;;;;;;;4.47;4.05;;;19.20;59.80;;;;;;5009142;28;20056;-83
2023/06/23 05:06:28;;;;;;;6.75;4.00;;;19.20;59.80;;;;;;5014369;28;20275;-82
2023/06/23 05:09:01;;;;;;;5.65;5.15;;;19.20;59.80;;;;;;5015612;28;20128;-82
2023/06/23 05:11:31;;;;;;;6.30;4.80;;;19.30;59.90;;;;;;5017847;28;20104;-82
2023/06/23 05:13:58;;;;;;;4.88;4.45;;;19.30;59.90;;;;;;5019247;28;20484;-84
2023/06/23 05:16:25;;;;;;;5.38;4.43;;;19.40;60.00;;;;;;5018261;28;20026;-83
2023/06/23 05:18:59;;;;;;;4.70;4.30;;;19.50;60.20;;;;;;5017092;28;20036;-84
2023/06/23 05:21:29;;;;;;;5.32;4.85;;;19.50;60.10;;;;;;5020376;28;20083;-82
2023/06/23 05:23:57;;;;;;;6.50;4.97;;;19.60;60.20;;;;;;5015722;28;20071;-82
2023/06/23 05:26:33;;;;;;;5.57;5.07;;;19.60;60.20;;;;;;5014098;28;20022;-80
2023/06/23 05:29:04;;;;;;;5.68;5.18;;;19.70;60.30;;;;;;5020099;28;20940;-81
2023/06/23 05:31:38;;;;;;;4.82;4.45;;;19.70;60.30;;;;;;5014788;28;20112;-83
2023/06/23 05:34:10;;;;;;;4.97;4.47;;;19.80;60.40;;;;;;5008167;28;20453;-82
2023/06/23 05:36:45;;;;;;;5.25;4.55;;;19.80;60.40;;;;;;5023738;28;20473;-81
2023/06/23 05:39:17;;;;;;;5.78;4.85;;;19.90;61.00;;;;;;5016708;28;20091;-86
2023/06/23 05:41:43;;;;;;;5.35;4.90;;;19.90;61.90;;;;;;5006438;28;20088;-80
2023/06/23 05:44:13;;;;;;;4.80;4.40;;;20.00;62.70;;;;;;5016474;28;20060;-81
2023/06/23 05:46:41;;;;;;;7.63;5.25;;;20.20;63.60;;;;;;5006367;28;20408;-80
2023/06/23 05:49:12;;;;;;;5.80;5.30;;;20.30;64.30;;;;;;5036056;28;20124;-81
2023/06/23 05:51:40;;;;;;;5.10;4.70;;;20.40;64.90;;;;;;5030555;28;20044;-78
2023/06/23 05:54:11;;;;;;;5.68;5.07;;;20.60;65.40;;;;;;5035845;28;20028;-80
2023/06/23 05:56:44;;;;;;;5.97;5.47;;;20.80;65.80;;;;;;5031711;28;20112;-80
2023/06/23 06:02:24;;;;;;;5.63;5.07;;;21.00;66.20;;;;;;1487513;26;20048;-72
2023/06/23 06:04:55;;;;;;;5.50;5.10;;;21.20;66.40;;;;;;5049739;28;20086;-72
2023/06/23 06:07:23;;;;;;;5.85;5.30;;;21.30;66.50;;;;;;5052234;28;20052;-72
2023/06/23 06:09:51;;;;;;;5.20;4.80;;;21.40;66.60;;;;;;5053738;28;20086;-72
2023/06/23 06:12:18;;;;;;;5.30;4.90;;;21.60;66.90;;;;;;5058068;28;20040;-72
2023/06/23 06:14:47;;;;;;;5.50;5.05;;;21.70;67.00;;;;;;5053510;28;20032;-72
2023/06/23 06:17:15;;;;;;;6.10;5.35;;;21.80;67.20;;;;;;5054803;28;20039;-71
2023/06/23 06:19:43;;;;;;;4.85;4.50;;;21.90;67.20;;;;;;5055928;28;20382;-70
2023/06/23 06:22:15;;;;;;;5.78;5.28;;;22.00;67.30;;;;;;5050842;28;20040;-71
2023/06/23 06:24:44;;;;;;;5.50;5.00;;;22.10;67.40;;;;;;5052997;28;20036;-71
2023/06/23 06:27:13;;;;;;;5.63;5.15;;;22.20;67.40;;;;;;5059942;28;20123;-70
2023/06/23 06:29:40;;;;;;;5.85;5.35;;;22.20;67.30;;;;;;5056611;28;20485;-74
2023/06/23 06:32:08;;;;;;;6.18;5.68;;;22.20;67.10;;;;;;5053462;28;20029;-70
2023/06/23 06:34:36;;;;;;;6.60;5.53;;;22.30;67.10;;;;;;5054308;28;20039;-75
2023/06/23 06:37:04;;;;;;;5.90;5.40;;;22.30;67.00;;;;;;5057180;28;20040;-73
2023/06/23 06:39:36;;;;;;;6.10;5.57;;;22.30;66.80;;;;;;5057587;28;20040;-74
2023/06/23 06:42:02;;;;;;;5.20;4.45;;;22.30;66.50;;;;;;5057076;28;20038;-74
2023/06/23 06:44:29;;;;;;;6.03;5.40;;;22.40;66.50;;;;;;5056584;28;20056;-74
2023/06/23 06:47:04;;;;;;;6.00;5.40;;;22.40;66.50;;;;;;5058268;28;20482;-72
2023/06/23 06:49:31;;;;;;;5.40;4.90;;;22.50;66.30;;;;;;5053517;28;20513;-72
2023/06/23 06:51:59;;;;;;;5.68;5.18;;;22.50;66.10;;;;;;5057011;28;20028;-73
2023/06/23 06:54:26;;;;;;;5.63;4.82;;;22.50;65.90;;;;;;5047902;28;20032;-70
2023/06/23 06:56:56;;;;;;;5.75;5.13;;;22.60;66.00;;;;;;5056746;28;20496;-75
2023/06/23 06:59:22;;;;;;;5.75;5.25;;;22.60;65.70;;;;;;5033235;28;20065;-70
2023/06/23 07:01:49;;;;;;;6.40;5.75;;;22.60;65.60;;;;;;5055350;28;20239;-70
2023/06/23 07:04:16;;;;;;;5.30;4.75;;;22.70;65.60;;;;;;5055494;28;20056;-72
2023/06/23 07:06:52;;;;;;;6.05;5.28;;;22.70;65.40;;;;;;5057159;28;20092;-72
2023/06/23 07:09:18;;;;;;;5.38;4.88;;;22.90;65.50;;;;;;5053687;28;20345;-73
2023/06/23 07:11:48;;;;;;;4.85;4.40;;;23.00;65.40;;;;;;5057906;28;20038;-71
2023/06/23 07:14:15;;;;;;;5.78;5.20;;;23.10;65.10;;;;;;5057528;28;20045;-72
2023/06/23 07:16:44;;;;;;;4.95;4.53;;;23.30;65.10;;;;;;5057468;28;21023;-74
2023/06/23 07:19:20;;;;;;;4.70;4.30;;;23.50;65.00;;;;;;5052447;28;20037;-75
2023/06/23 07:21:46;;;;;;;4.93;4.53;;;23.60;64.60;;;;;;5055255;28;20032;-76
2023/06/23 07:24:12;;;;;;;5.10;4.65;;;23.80;64.50;;;;;;5055204;28;20504;-74
2023/06/23 07:26:40;;;;;;;5.30;4.32;;;24.00;64.40;;;;;;5053968;28;20032;-72
2023/06/23 07:29:06;;;;;;;4.97;4.57;;;24.20;64.30;;;;;;5054935;28;20053;-74
2023/06/23 07:31:35;;;;;;;4.82;4.43;;;24.30;64.10;;;;;;5053975;28;20170;-73
2023/06/23 07:34:01;;;;;;;4.88;4.45;;;24.60;64.20;;;;;;5053788;28;20040;-74
2023/06/23 07:36:28;;;;;;;5.18;4.70;;;24.80;64.00;;;;;;5056004;28;20135;-71
2023/06/23 07:38:54;;;;;;;4.22;3.83;;;25.00;63.80;;;;;;5057031;28;20036;-73
2023/06/23 07:41:21;;;;;;;4.88;4.05;;;25.20;63.40;;;;;;5052889;28;20531;-74
2023/06/23 07:43:47;;;;;;;5.15;3.97;;;25.40;63.00;;;;;;5058078;28;20149;-75
2023/06/23 07:46:16;;;;;;;5.30;4.80;;;25.60;62.60;;;;;;5047372;28;20148;-73
2023/06/23 07:48:43;;;;;;;4.50;4.10;;;25.80;62.10;;;;;;5047344;28;20261;-68
2023/06/23 07:51:18;;;;;;;4.50;4.10;;;26.10;61.60;;;;;;5051618;28;20032;-73
2023/06/23 07:53:44;;;;;;;4.45;4.05;;;26.40;61.00;;;;;;5058967;28;20623;-72
2023/06/23 07:56:12;;;;;;;4.82;3.95;;;26.80;60.30;;;;;;5063440;28;20047;-72
2023/06/23 07:58:39;;;;;;;4.25;3.83;;;27.20;59.60;;;;;;5062564;28;20086;-72
2023/06/23 08:01:09;;;;;;;4.30;3.90;;;27.60;58.90;;;;;;5065836;28;20090;-75
2023/06/23 08:03:35;;;;;;;3.88;3.58;;;27.90;58.20;;;;;;5051673;28;20688;-71
2023/06/23 08:06:02;;;;;;;5.47;3.47;;;28.10;57.80;;;;;;5055630;28;20033;-75
2023/06/23 08:08:28;;;;;;;4.53;4.13;;;28.20;57.50;;;;;;5056337;28;20482;-71
2023/06/23 08:10:54;;;;;;;3.80;3.50;;;28.30;57.40;;;;;;5057282;28;20575;-73
2023/06/23 08:13:20;;;;;;;3.83;3.50;;;28.40;57.30;;;;;;5061375;28;20068;-73
2023/06/23 08:15:47;;;;;;;3.70;3.40;;;28.50;57.10;;;;;;5053899;28;20054;-73
2023/06/23 08:18:13;;;;;;;4.03;3.50;;;28.60;56.90;;;;;;5057769;28;20397;-69
2023/06/23 08:20:39;;;;;;;3.88;3.58;;;28.70;56.80;;;;;;5057280;28;20090;-71
2023/06/23 08:23:05;;;;;;;4.30;3.90;;;28.70;56.50;;;;;;5060559;28;20039;-73
2023/06/23 08:25:32;;;;;;;3.97;3.28;;;28.80;56.40;;;;;;5056002;28;20033;-72
2023/06/23 08:27:58;;;;;;;3.67;3.38;;;28.80;56.10;;;;;;5058762;28;20489;-71
2023/06/23 08:30:26;;;;;;;3.63;3.33;;;28.90;56.00;;;;;;5055899;28;20044;-74
2023/06/23 08:32:53;;;;;;;3.55;3.25;;;29.00;55.90;;;;;;5059311;28;20036;-75
2023/06/23 08:35:22;;;;;;;4.28;3.95;;;29.00;55.70;;;;;;5053255;28;20497;-68
2023/06/23 08:37:48;;;;;;;3.30;3.03;;;29.10;55.50;;;;;;5056773;28;20044;-72
2023/06/23 08:40:14;;;;;;;3.78;3.47;;;29.10;55.20;;;;;;5054020;28;20071;-72
2023/06/23 08:42:41;;;;;;;3.55;3.25;;;29.20;55.00;;;;;;5051247;28;20393;-71
2023/06/23 08:45:10;;;;;;;3.72;3.42;;;29.30;54.90;;;;;;5058114;28;20157;-73
2023/06/23 08:47:47;;;;;;;4.07;3.78;;;29.40;54.70;;;;;;5058940;28;20414;-73
2023/06/23 08:50:14;;;;;;;4.45;3.70;;;29.50;54.40;;;;;;5059376;28;20036;-73
2023/06/23 08:52:41;;;;;;;3.92;3.45;;;29.50;54.20;;;;;;5057608;28;20033;-72
2023/06/23 08:55:11;;;;;;;3.42;3.13;;;29.70;54.10;;;;;;5057708;28;20111;-71
2023/06/23 08:57:40;;;;;;;3.47;3.17;;;29.80;53.90;;;;;;5057893;28;20390;-71
2023/06/23 09:00:10;;;;;;;3.90;3.28;;;29.90;53.70;;;;;;5060389;28;20450;-69
2023/06/23 09:02:36;;;;;;;3.13;2.92;;;29.90;53.50;;;;;;5057314;28;20052;-71
2023/06/23 09:05:25;;;;;;;3.53;3.22;;;29.90;53.30;;;;;;4991732;28;20053;-73
2023/06/23 09:07:52;;;;;;;3.30;3.00;;;30.00;53.20;;;;;;5047669;28;20466;-70
2023/06/23 09:10:18;;;;;;;3.83;3.53;;;30.00;53.00;;;;;;5081051;28;20041;-72
2023/06/23 09:13:18;;;;;;;3.10;2.88;;;30.20;52.90;;;;;;5054155;28;20105;-73
2023/06/23 09:15:47;;;;;;;3.65;3.35;;;30.30;52.50;;;;;;5030078;28;20045;-70
2023/06/23 09:18:15;;;;;;;4.03;3.72;;;30.40;52.40;;;;;;5059544;28;20301;-73
2023/06/23 09:21:05;;;;;;;3.85;3.55;;;30.60;52.10;;;;;;5057571;28;20504;-70
2023/06/23 09:23:32;;;;;;;3.38;3.17;;;30.80;51.90;;;;;;5059436;28;20045;-74
2023/06/23 09:25:59;;;;;;;3.10;2.88;;;30.90;51.50;;;;;;5050783;28;20098;-73
2023/06/23 09:28:45;;;;;;;3.45;3.15;;;31.10;51.10;;;;;;4996774;28;20493;-70
2023/06/23 09:31:14;;;;;;;3.30;3.00;;;31.30;50.80;;;;;;5045750;28;20075;-74
2023/06/23 09:33:48;;;;;;;3.00;2.80;;;31.50;50.60;;;;;;5058849;28;20036;-72
2023/06/23 09:36:14;;;;;;;3.25;3.05;;;31.60;50.20;;;;;;5056126;28;20035;-74
2023/06/23 09:38:43;;;;;;;2.60;2.47;;;31.80;50.10;;;;;;5057676;28;20032;-70
2023/06/23 09:41:14;;;;;;;2.88;2.67;;;32.10;49.90;;;;;;5058594;28;20582;-72
2023/06/23 09:43:46;;;;;;;3.30;3.00;;;32.20;49.50;;;;;;5059162;28;20545;-74
2023/06/23 09:46:15;;;;;;;3.55;3.28;;;32.30;49.20;;;;;;5053971;28;20030;-74
2023/06/23 09:48:46;;;;;;;3.03;2.72;;;32.40;49.20;;;;;;5056940;28;20081;-73
2023/06/23 09:51:19;;;;;;;3.13;2.83;;;32.50;49.00;;;;;;5059230;28;20602;-71
2023/06/23 09:53:45;;;;;;;3.10;2.88;;;32.70;48.90;;;;;;5039615;28;20493;-72
2023/06/23 09:56:19;;;;;;;3.00;2.72;;;32.80;48.70;;;;;;5056000;28;20311;-73
2023/06/23 09:58:48;;;;;;;3.30;3.00;;;32.80;48.40;;;;;;5057386;28;20502;-72
2023/06/23 10:01:19;;;;;;;2.85;2.65;;;32.90;48.20;;;;;;5052392;28;20064;-73
2023/06/23 10:03:47;;;;;;;3.15;2.95;;;33.00;48.00;;;;;;5056173;28;20057;-73
2023/06/23 10:06:29;;;;;;;3.47;3.17;;;33.20;48.00;;;;;;5058270;28;20037;-74
2023/06/23 10:08:57;;;;;;;3.30;3.00;;;33.20;47.60;;;;;;5054790;28;20047;-70
2023/06/23 10:11:34;;;;;;;2.90;2.70;;;33.30;47.50;;;;;;5059747;28;20821;-73
2023/06/23 10:14:06;;;;;;;2.70;2.50;;;33.40;47.20;;;;;;5059036;28;20115;-74
2023/06/23 10:16:36;;;;;;;2.90;2.70;;;33.50;47.10;;;;;;5058202;28;20028;-72
2023/06/23 10:19:05;;;;;;;5.68;3.10;;;33.60;47.00;;;;;;5058583;28;20033;-71
2023/06/23 10:21:36;;;;;;;2.35;2.20;;;33.70;46.70;;;;;;5057817;28;20024;-73
2023/06/23 10:24:08;;;;;;;3.45;2.65;;;33.80;46.60;;;;;;5054083;28;20048;-74
2023/06/23 10:26:37;;;;;;;5.57;2.83;;;33.80;46.50;;;;;;5053426;28;20559;-73
2023/06/23 10:29:11;;;;;;;2.95;2.75;;;33.80;46.90;;;;;;5055858;28;20051;-74
2023/06/23 10:31:39;;;;;;;2.58;2.38;;;33.80;46.20;;;;;;5053769;28;20035;-73
2023/06/23 10:34:08;;;;;;;2.70;2.50;;;33.80;46.20;;;;;;5056974;28;20104;-72
2023/06/23 10:36:40;;;;;;;2.65;2.45;;;34.00;46.10;;;;;;5057545;28;20127;-71
2023/06/23 10:39:08;;;;;;;3.15;2.95;;;34.10;45.80;;;;;;5056748;28;20047;-70
2023/06/23 10:41:34;;;;;;;2.60;2.40;;;34.10;45.60;;;;;;5054019;28;20356;-72
2023/06/23 10:44:03;;;;;;;3.22;2.97;;;34.10;45.50;;;;;;5061624;28;20130;-70
2023/06/23 10:46:30;;;;;;;2.90;2.70;;;34.20;45.50;;;;;;5068420;28;20064;-74
2023/06/23 10:48:57;;;;;;;2.63;2.42;;;34.30;45.40;;;;;;5068898;28;20032;-72
2023/06/23 10:51:24;;;;;;;3.53;2.85;;;34.30;45.20;;;;;;5057987;28;20143;-72
2023/06/23 10:53:58;;;;;;;3.00;2.80;;;34.30;45.00;;;;;;5057215;28;20036;-71
2023/06/23 10:56:39;;;;;;;2.80;2.60;;;34.50;44.80;;;;;;5058516;28;20044;-70
2023/06/23 10:59:23;;;;;;;2.15;1.95;;;34.60;44.70;;;;;;5057284;28;20039;-71
2023/06/23 11:02:04;;;;;;;2.22;2.13;;;34.70;44.50;;;;;;5051976;28;20127;-71
2023/06/23 11:04:33;;;;;;;2.53;2.33;;;34.90;44.30;;;;;;5055124;28;20048;-72
2023/06/23 11:07:07;;;;;;;2.60;2.40;;;35.10;44.30;;;;;;5055289;28;20154;-73
2023/06/23 11:09:52;;;;;;;2.88;2.67;;;35.30;44.00;;;;;;5057559;28;20040;-73
2023/06/23 11:12:36;;;;;;;3.30;1.90;;;35.40;43.60;;;;;;5058304;28;20280;-70
2023/06/23 11:15:05;;;;;;;2.97;2.47;;;35.60;43.40;;;;;;5057724;28;20732;-71
2023/06/23 11:17:43;;;;;;;2.60;2.40;;;35.80;43.40;;;;;;5057514;28;20089;-73
2023/06/23 11:20:26;;;;;;;2.88;2.60;;;35.90;42.90;;;;;;5058098;28;20090;-73
2023/06/23 11:22:59;;;;;;;2.10;2.00;;;36.10;42.90;;;;;;5057105;28;20051;-71
2023/06/23 11:25:48;;;;;;;2.70;2.50;;;36.20;42.60;;;;;;5054505;28;20060;-70
2023/06/23 11:28:53;;;;;;;2.42;2.22;;;36.30;42.50;;;;;;5051816;28;20033;-70
2023/06/23 11:31:27;;;;;;;2.33;2.17;;;36.40;42.40;;;;;;5006070;28;20037;-73
2023/06/23 11:34:01;;;;;;;2.42;2.33;;;36.30;42.60;;;;;;5039560;28;20087;-75
2023/06/23 11:36:29;;;;;;;2.50;2.30;;;36.20;42.70;;;;;;5056116;28;20409;-73
2023/06/23 11:39:00;;;;;;;2.40;2.20;;;36.10;42.80;;;;;;5049809;28;20465;-73
2023/06/23 11:41:28;;;;;;;2.38;2.20;;;36.00;42.90;;;;;;5055762;28;20521;-72
2023/06/23 11:43:58;;;;;;;2.47;2.28;;;35.90;43.00;;;;;;5058114;28;20405;-73
2023/06/23 11:46:25;;;;;;;2.65;2.45;;;35.80;43.00;;;;;;5057659;28;20437;-70
2023/06/23 11:48:51;;;;;;;2.22;2.03;;;36.00;43.10;;;;;;5054028;28;20586;-72
2023/06/23 11:51:19;;;;;;;2.70;2.13;;;36.10;42.80;;;;;;5053062;28;20068;-72
2023/06/23 11:53:51;;;;;;;2.50;2.35;;;36.30;42.60;;;;;;5058115;28;20028;-73
2023/06/23 11:56:20;;;;;;;2.35;2.20;;;36.60;42.40;;;;;;5057407;28;20491;-72
2023/06/23 11:58:52;;;;;;;4.15;2.35;;;36.80;42.00;;;;;;5056807;28;20302;-70
2023/06/23 12:01:19;;;;;;;2.67;2.47;;;36.90;41.60;;;;;;5055547;28;20035;-73
2023/06/23 12:03:48;;;;;;;2.78;2.58;;;36.80;41.60;;;;;;5055601;28;20051;-74
2023/06/23 12:06:17;;;;;;;2.03;1.92;;;36.80;41.70;;;;;;5055973;28;20509;-73
2023/06/23 12:08:49;;;;;;;2.42;2.22;;;37.00;41.50;;;;;;5055429;28;20746;-71
2023/06/23 12:11:22;;;;;;;2.53;2.33;;;37.30;41.30;;;;;;5056215;28;20127;-73
2023/06/23 12:13:54;;;;;;;2.50;2.30;;;37.60;41.00;;;;;;5051876;28;20120;-74
2023/06/23 12:16:23;;;;;;;2.35;2.00;;;37.90;40.80;;;;;;5050699;28;20588;-70
2023/06/23 12:18:53;;;;;;;2.08;1.90;;;38.10;40.60;;;;;;5051910;28;20317;-74
2023/06/23 12:21:21;;;;;;;2.00;1.90;;;38.20;40.30;;;;;;5057122;28;20528;-74
2023/06/23 12:23:48;;;;;;;2.03;1.92;;;38.10;40.10;;;;;;5052449;28;20477;-70
2023/06/23 12:26:17;;;;;;;2.35;2.15;;;38.10;40.20;;;;;;5052983;28;20073;-73
2023/06/23 12:28:43;;;;;;;2.45;2.25;;;38.30;40.10;;;;;;5055601;28;20044;-71
2023/06/23 12:31:09;;;;;;;2.50;2.10;;;38.40;39.90;;;;;;5055565;28;20374;-74
2023/06/23 12:33:38;;;;;;;2.30;2.20;;;38.30;39.80;;;;;;5056027;28;20044;-74
2023/06/23 12:36:07;;;;;;;2.30;2.10;;;38.30;39.90;;;;;;5055477;28;20035;-72
2023/06/23 12:38:41;;;;;;;1.83;1.73;;;38.30;39.90;;;;;;5056130;28;20036;-72
2023/06/23 12:41:19;;;;;;;1.95;1.77;;;38.50;39.90;;;;;;5055347;28;20422;-73
2023/06/23 12:43:48;;;;;;;2.55;2.13;;;38.60;39.60;;;;;;5051048;28;20045;-73
2023/06/23 12:46:16;;;;;;;;;;;38.90;39.50;;;;;;5055386;28;20033;-72
2023/06/23 12:48:44;;;;;;;1.95;1.85;;;39.10;39.50;;;;;;5054650;28;20135;-75
2023/06/23 12:51:10;;;;;;;2.20;2.00;;;39.20;39.30;;;;;;5052450;28;20124;-70
2023/06/23 12:53:40;;;;;;;1.85;1.75;;;39.40;39.00;;;;;;5057418;28;20032;-72
2023/06/23 12:56:06;;;;;;;1.98;1.88;;;39.60;38.80;;;;;;5064098;28;20037;-74
2023/06/23 12:58:35;;;;;;;1.73;1.63;;;39.80;38.60;;;;;;5070587;28;20043;-72
2023/06/23 13:01:04;;;;;;;1.95;1.85;;;39.90;38.40;;;;;;5067915;28;20052;-71
2023/06/23 13:03:33;;;;;;;2.00;1.90;;;39.90;38.20;;;;;;5057393;28;20070;-74
2023/06/23 13:05:59;;;;;;;2.05;1.92;;;39.80;38.30;;;;;;5057982;28;20126;-72
2023/06/23 13:08:31;;;;;;;2.05;1.95;;;39.50;38.40;;;;;;5060344;28;20043;-73
2023/06/23 13:10:58;;;;;;;1.90;1.80;;;39.40;38.60;;;;;;5060485;28;20052;-72